createdAt,value
2019-05-21T00:00:20.811Z,11.40
2019-05-21T00:02:47.204Z,11.20
2019-05-21T00:05:13.429Z,11.30
2019-05-21T00:07:39.728Z,11.30
2019-05-21T00:10:06.953Z,11.30
2019-05-21T00:12:33.495Z,11.40
2019-05-21T00:14:59.990Z,11.40
2019-05-21T00:17:26.218Z,11.50
2019-05-21T00:19:53.021Z,11.60
2019-05-21T00:22:19.489Z,11.60
2019-05-21T00:24:46.230Z,11.70
2019-05-21T00:27:12.802Z,11.80
2019-05-21T00:30:16.441Z,11.80
2019-05-21T00:33:20.321Z,11.90
2019-05-21T00:39:39.697Z,11.80
2019-05-21T00:42:07.023Z,11.60
2019-05-21T00:44:41.646Z,11.50
2019-05-21T00:47:10.696Z,11.40
2019-05-21T00:49:37.106Z,11.30
2019-05-21T00:52:08.395Z,11.20
2019-05-21T00:54:33.438Z,11.20
2019-05-21T00:56:59.929Z,11.10
2019-05-21T00:59:26.567Z,11.10
2019-05-21T01:01:53.177Z,11.10
2019-05-21T01:04:19.825Z,11.20
2019-05-21T01:06:46.038Z,11.10
2019-05-21T01:09:12.689Z,11.10
2019-05-21T01:11:39.394Z,11.10
2019-05-21T01:14:07.064Z,11.10
2019-05-21T01:16:33.390Z,11.20
2019-05-21T01:18:59.654Z,11.00
2019-05-21T01:21:26.361Z,10.90
2019-05-21T01:23:52.954Z,10.70
2019-05-21T01:26:19.574Z,10.70
2019-05-21T01:28:46.192Z,10.70
2019-05-21T01:31:12.914Z,10.70
2019-05-21T01:33:40.055Z,10.70
2019-05-21T01:36:06.504Z,10.70
2019-05-21T01:38:33.171Z,10.90
2019-05-21T01:40:59.781Z,11.00
2019-05-21T01:43:26.062Z,11.10
2019-05-21T01:45:52.673Z,11.20
2019-05-21T01:48:19.306Z,11.20
2019-05-21T01:50:45.939Z,11.10
2019-05-21T01:53:12.203Z,11.20
2019-05-21T01:55:38.825Z,11.30
2019-05-21T01:58:05.548Z,11.30
2019-05-21T02:00:32.216Z,11.20
2019-05-21T02:02:58.717Z,11.20
2019-05-21T02:05:32.946Z,11.20
2019-05-21T02:07:53.621Z,10.90
2019-05-21T02:10:19.990Z,10.90
2019-05-21T02:12:46.513Z,10.90
2019-05-21T02:15:13.669Z,11.00
2019-05-21T02:17:40.195Z,11.20
2019-05-21T02:20:07.043Z,11.50
2019-05-21T02:22:34.277Z,11.50
2019-05-21T02:25:01.012Z,11.50
2019-05-21T02:27:27.564Z,11.60
2019-05-21T02:29:53.814Z,11.20
2019-05-21T02:32:20.446Z,11.10
2019-05-21T02:34:47.090Z,11.20
2019-05-21T02:37:13.307Z,11.30
2019-05-21T02:39:39.929Z,11.30
2019-05-21T02:42:06.787Z,11.20
2019-05-21T02:44:33.315Z,11.30
2019-05-21T02:46:59.842Z,11.20
2019-05-21T02:49:26.107Z,11.00
2019-05-21T02:51:52.727Z,11.00
2019-05-21T02:54:19.447Z,11.00
2019-05-21T02:56:46.043Z,10.80
2019-05-21T02:59:12.634Z,10.80
2019-05-21T03:01:41.191Z,10.70
2019-05-21T03:04:07.543Z,10.70
2019-05-21T03:06:33.902Z,10.70
2019-05-21T03:09:00.606Z,10.80
2019-05-21T03:11:27.183Z,11.00
2019-05-21T03:13:53.686Z,11.00
2019-05-21T03:16:20.360Z,10.90
2019-05-21T03:18:46.987Z,10.90
2019-05-21T03:21:14.450Z,10.70
2019-05-21T03:23:41.066Z,10.50
2019-05-21T03:26:07.370Z,10.60
2019-05-21T03:28:33.930Z,10.70
2019-05-21T03:31:00.171Z,10.70
2019-05-21T03:33:26.825Z,10.70
2019-05-21T03:35:54.369Z,10.80
2019-05-21T03:38:20.617Z,10.80
2019-05-21T03:40:47.158Z,10.80
2019-05-21T03:43:14.210Z,10.80
2019-05-21T03:45:40.863Z,10.80
2019-05-21T03:48:07.475Z,10.80
2019-05-21T03:50:34.179Z,10.90
2019-05-21T03:53:00.725Z,11.00
2019-05-21T03:55:26.973Z,11.00
2019-05-21T03:57:53.634Z,11.10
2019-05-21T04:00:20.464Z,11.20
2019-05-21T04:02:46.875Z,11.10
2019-05-21T04:05:19.911Z,11.00
2019-05-21T04:07:46.162Z,11.00
2019-05-21T04:10:15.801Z,11.10
2019-05-21T04:12:42.034Z,11.30
2019-05-21T04:15:10.762Z,11.40
2019-05-21T04:17:48.361Z,11.70
2019-05-21T04:20:14.636Z,11.80
2019-05-21T04:22:42.785Z,11.80
2019-05-21T04:25:09.146Z,11.70
2019-05-21T04:27:35.408Z,11.40
2019-05-21T04:30:06.233Z,11.20
2019-05-21T04:32:32.768Z,11.20
2019-05-21T04:34:59.377Z,11.30
2019-05-21T04:37:25.729Z,11.30
2019-05-21T04:39:52.267Z,11.40
2019-05-21T04:42:18.500Z,11.40
2019-05-21T04:44:44.714Z,11.40
2019-05-21T04:47:10.961Z,11.30
2019-05-21T04:49:37.575Z,11.10
2019-05-21T04:52:03.824Z,11.20
2019-05-21T04:54:30.441Z,11.20
2019-05-21T04:56:56.699Z,11.00
2019-05-21T04:59:23.349Z,11.10
2019-05-21T05:01:49.984Z,11.20
2019-05-21T05:04:21.512Z,11.30
2019-05-21T05:06:44.873Z,11.40
2019-05-21T05:09:11.119Z,11.50
2019-05-21T05:11:37.735Z,11.50
2019-05-21T05:14:04.012Z,11.40
2019-05-21T05:16:30.753Z,11.50
2019-05-21T05:18:57.376Z,11.60
2019-05-21T05:21:23.937Z,11.80
2019-05-21T05:23:50.721Z,12.00
2019-05-21T05:26:17.173Z,12.10
2019-05-21T05:28:43.790Z,12.20
2019-05-21T05:31:10.068Z,12.10
2019-05-21T05:33:36.661Z,12.00
2019-05-21T05:36:03.098Z,12.00
2019-05-21T05:38:29.342Z,11.90
2019-05-21T05:40:55.777Z,11.70
2019-05-21T05:43:22.415Z,11.50
2019-05-21T05:45:49.041Z,11.60
2019-05-21T05:48:16.214Z,11.70
2019-05-21T05:50:44.323Z,11.70
2019-05-21T05:53:10.546Z,11.60
2019-05-21T05:55:36.797Z,11.60
2019-05-21T05:58:03.428Z,11.50
2019-05-21T06:00:29.865Z,11.40
2019-05-21T06:02:56.061Z,11.30
2019-05-21T06:05:22.601Z,11.40
2019-05-21T06:07:59.315Z,11.30
2019-05-21T06:10:16.933Z,11.50
2019-05-21T06:12:43.177Z,11.50
2019-05-21T06:15:10.002Z,11.70
2019-05-21T06:17:36.369Z,11.60
2019-05-21T06:20:05.872Z,11.70
2019-05-21T06:22:32.140Z,11.80
2019-05-21T06:24:58.372Z,11.70
2019-05-21T06:27:24.591Z,11.50
2019-05-21T06:29:50.836Z,11.50
2019-05-21T06:32:17.073Z,11.50
2019-05-21T06:34:43.328Z,11.50
2019-05-21T06:37:09.530Z,11.60
2019-05-21T06:39:35.756Z,11.90
2019-05-21T06:42:02.006Z,12.00
2019-05-21T06:44:28.222Z,11.80
2019-05-21T06:46:54.457Z,11.90
2019-05-21T06:49:20.674Z,11.90
2019-05-21T06:51:46.920Z,12.00
2019-05-21T06:54:13.141Z,12.30
2019-05-21T06:56:39.404Z,12.50
2019-05-21T06:59:05.658Z,12.70
2019-05-21T07:01:31.871Z,12.80
2019-05-21T07:03:58.147Z,12.90
2019-05-21T07:06:24.341Z,13.00
2019-05-21T07:08:50.585Z,13.20
2019-05-21T07:11:16.797Z,13.00
2019-05-21T07:13:43.051Z,13.10
2019-05-21T07:16:09.261Z,13.50
2019-05-21T07:18:35.498Z,13.60
2019-05-21T07:21:01.824Z,13.90
2019-05-21T07:23:28.498Z,14.20
2019-05-21T07:25:54.711Z,14.00
2019-05-21T07:28:21.001Z,13.40
2019-05-21T07:30:47.461Z,13.10
2019-05-21T07:33:14.024Z,12.90
2019-05-21T07:35:40.353Z,12.70
2019-05-21T07:38:06.626Z,12.80
2019-05-21T07:40:32.862Z,12.90
2019-05-21T07:42:59.101Z,12.80
2019-05-21T07:45:25.361Z,12.60
2019-05-21T07:47:51.581Z,12.80
2019-05-21T07:50:17.799Z,12.50
2019-05-21T07:52:43.942Z,12.40
2019-05-21T07:55:10.352Z,12.40
2019-05-21T07:57:36.619Z,12.60
2019-05-21T08:00:04.992Z,12.80
2019-05-21T08:02:31.229Z,12.90
2019-05-21T08:04:57.444Z,13.20
2019-05-21T08:07:23.876Z,13.00
2019-05-21T08:09:50.092Z,12.90
2019-05-21T08:12:36.900Z,12.80
2019-05-21T08:14:44.344Z,12.90
2019-05-21T08:17:10.561Z,13.20
2019-05-21T08:19:36.817Z,13.40
2019-05-21T08:22:03.041Z,13.30
2019-05-21T08:24:29.273Z,13.40
2019-05-21T08:26:55.489Z,13.50
2019-05-21T08:29:21.693Z,14.20
2019-05-21T08:31:47.948Z,14.80
2019-05-21T08:34:14.176Z,15.10
2019-05-21T08:36:40.649Z,14.60
2019-05-21T08:39:07.067Z,14.60
2019-05-21T08:41:33.310Z,14.60
2019-05-21T08:43:59.512Z,14.70
2019-05-21T08:46:25.759Z,15.30
2019-05-21T08:48:51.980Z,16.00
2019-05-21T08:51:18.204Z,16.10
2019-05-21T08:53:44.437Z,16.30
2019-05-21T08:56:10.672Z,15.80
2019-05-21T08:58:37.000Z,15.60
2019-05-21T09:01:03.517Z,15.80
2019-05-21T09:03:29.672Z,15.60
2019-05-21T09:05:56.018Z,15.80
2019-05-21T09:08:22.225Z,16.20
2019-05-21T09:10:48.396Z,16.30
2019-05-21T09:13:17.764Z,16.80
2019-05-21T09:15:42.663Z,17.10
2019-05-21T09:18:08.879Z,17.20
2019-05-21T09:20:36.352Z,17.70
2019-05-21T09:23:02.761Z,18.60
2019-05-21T09:25:29.021Z,19.20
2019-05-21T09:27:55.227Z,19.90
2019-05-21T09:30:21.565Z,21.40
2019-05-21T09:32:47.945Z,22.20
2019-05-21T09:35:14.225Z,21.90
2019-05-21T09:37:40.454Z,21.10
2019-05-21T09:40:08.686Z,20.40
2019-05-21T09:42:35.054Z,20.60
2019-05-21T09:45:01.533Z,20.60
2019-05-21T09:47:27.800Z,20.80
2019-05-21T09:49:54.188Z,21.00
2019-05-21T09:52:20.359Z,21.10
2019-05-21T09:54:46.605Z,21.80
2019-05-21T09:57:14.725Z,22.70
2019-05-21T09:59:54.816Z,22.70
2019-05-21T10:02:34.368Z,22.80
2019-05-21T10:05:00.602Z,21.50
2019-05-21T10:07:39.379Z,21.80
2019-05-21T10:09:54.956Z,21.60
2019-05-21T10:12:21.302Z,21.70
2019-05-21T10:14:47.529Z,22.30
2019-05-21T10:17:13.749Z,23.20
2019-05-21T10:19:39.988Z,22.60
2019-05-21T10:22:06.476Z,21.50
2019-05-21T10:24:32.816Z,21.00
2019-05-21T10:27:01.428Z,21.10
2019-05-21T10:29:27.492Z,22.00
2019-05-21T10:31:53.737Z,22.20
2019-05-21T10:34:20.069Z,24.60
2019-05-21T10:36:46.284Z,23.60
2019-05-21T10:39:12.713Z,23.00
2019-05-21T10:41:38.936Z,23.80
2019-05-21T10:44:05.707Z,24.50
2019-05-21T10:46:31.918Z,25.00
2019-05-21T10:48:58.159Z,23.60
2019-05-21T10:51:24.496Z,22.80
2019-05-21T10:53:50.893Z,22.80
2019-05-21T10:56:17.144Z,25.00
2019-05-21T10:58:43.358Z,23.90
2019-05-21T11:01:14.281Z,23.90
2019-05-21T11:03:45.153Z,23.10
2019-05-21T11:06:11.679Z,22.30
2019-05-21T11:08:38.330Z,23.00
2019-05-21T11:11:04.736Z,22.70
2019-05-21T11:13:30.983Z,24.20
2019-05-21T11:15:57.311Z,24.50
2019-05-21T11:18:23.620Z,22.70
2019-05-21T11:20:49.937Z,22.20
2019-05-21T11:23:16.172Z,21.80
2019-05-21T11:25:42.417Z,22.10
2019-05-21T11:28:08.648Z,22.10
2019-05-21T11:30:34.966Z,23.50
2019-05-21T11:33:01.194Z,24.10
2019-05-21T11:35:27.522Z,23.50
2019-05-21T11:37:53.846Z,23.10
2019-05-21T11:40:21.664Z,22.40
2019-05-21T11:42:47.914Z,22.20
2019-05-21T11:45:31.156Z,22.60
2019-05-21T11:47:43.000Z,22.70
2019-05-21T11:50:09.921Z,22.20
2019-05-21T11:52:36.128Z,22.70
2019-05-21T11:55:03.592Z,22.70
2019-05-21T11:57:29.784Z,22.40
2019-05-21T11:59:55.997Z,22.20
2019-05-21T12:02:22.278Z,21.70
2019-05-21T12:04:48.493Z,22.40
2019-05-21T12:07:14.758Z,22.60
2019-05-21T12:09:40.973Z,22.30
2019-05-21T12:12:07.301Z,23.10
2019-05-21T12:14:33.520Z,23.10
2019-05-21T12:16:59.761Z,22.70
2019-05-21T12:19:25.987Z,23.10
2019-05-21T12:21:52.344Z,24.60
2019-05-21T12:24:18.586Z,24.70
2019-05-21T12:26:45.978Z,24.60
2019-05-21T12:29:12.203Z,23.80
2019-05-21T12:31:38.440Z,24.00
2019-05-21T12:34:04.757Z,23.30
2019-05-21T12:36:31.022Z,23.80
2019-05-21T12:39:11.602Z,23.80
2019-05-21T12:41:25.388Z,23.20
2019-05-21T12:43:51.661Z,22.90
2019-05-21T12:46:17.857Z,22.60
2019-05-21T12:48:44.060Z,22.40
2019-05-21T12:51:10.278Z,22.60
2019-05-21T12:53:36.507Z,23.50
2019-05-21T12:56:02.833Z,22.60
2019-05-21T12:58:29.064Z,22.50
2019-05-21T13:00:55.297Z,22.20
2019-05-21T13:03:21.554Z,21.90
2019-05-21T13:05:50.128Z,21.30
2019-05-21T13:08:16.372Z,20.80
2019-05-21T13:10:43.613Z,20.70
2019-05-21T13:13:09.833Z,20.10
2019-05-21T13:15:36.178Z,19.80
2019-05-21T13:18:02.394Z,19.80
2019-05-21T13:20:28.632Z,19.60
2019-05-21T13:22:54.873Z,19.60
2019-05-21T13:25:21.102Z,19.50
2019-05-21T13:27:47.345Z,19.50
2019-05-21T13:30:13.769Z,19.40
2019-05-21T13:32:43.145Z,19.40
2019-05-21T13:35:08.753Z,19.30
2019-05-21T13:37:35.075Z,19.40
2019-05-21T13:40:02.131Z,19.50
2019-05-21T13:42:28.350Z,19.80
2019-05-21T13:44:54.694Z,19.90
2019-05-21T13:47:20.901Z,20.30
2019-05-21T13:49:47.264Z,20.70
2019-05-21T13:52:13.572Z,20.80
2019-05-21T13:54:39.784Z,20.70
2019-05-21T13:57:06.147Z,21.20
2019-05-21T13:59:32.449Z,21.10
2019-05-21T14:01:59.522Z,20.40
2019-05-21T14:04:25.892Z,20.40
2019-05-21T14:06:52.090Z,19.90
2019-05-21T14:09:18.306Z,20.00
2019-05-21T14:11:44.566Z,19.80
2019-05-21T14:14:10.783Z,20.00
2019-05-21T14:16:37.009Z,19.90
2019-05-21T14:19:03.759Z,19.90
2019-05-21T14:21:30.000Z,19.80
2019-05-21T14:23:56.215Z,19.70
2019-05-21T14:26:22.572Z,19.80
2019-05-21T14:28:48.784Z,20.00
2019-05-21T14:31:15.063Z,20.10
2019-05-21T14:33:41.265Z,20.50
2019-05-21T14:36:07.502Z,20.30
2019-05-21T14:38:33.761Z,19.80
2019-05-21T14:40:59.992Z,19.20
2019-05-21T14:43:26.193Z,19.00
2019-05-21T14:45:52.448Z,18.90
2019-05-21T14:48:18.710Z,19.00
2019-05-21T14:50:44.964Z,19.10
2019-05-21T14:53:11.384Z,19.30
2019-05-21T14:55:37.527Z,19.50
2019-05-21T14:58:03.772Z,19.60
2019-05-21T15:00:35.659Z,19.50
2019-05-21T15:03:01.996Z,19.60
2019-05-21T15:05:28.552Z,19.40
2019-05-21T15:07:54.767Z,19.40
2019-05-21T15:10:21.093Z,19.50
2019-05-21T15:12:47.448Z,19.80
2019-05-21T15:15:14.474Z,19.50
2019-05-21T15:17:40.787Z,19.20
2019-05-21T15:20:30.442Z,19.00
2019-05-21T15:22:56.521Z,19.10
2019-05-21T15:25:22.797Z,18.90
2019-05-21T15:27:49.041Z,18.90
2019-05-21T15:30:17.315Z,18.90
2019-05-21T15:32:43.558Z,18.80
2019-05-21T15:35:10.010Z,18.90
2019-05-21T15:37:36.284Z,18.90
2019-05-21T15:40:05.434Z,18.90
2019-05-21T15:42:31.801Z,18.70
2019-05-21T15:44:58.155Z,18.70
2019-05-21T15:47:24.432Z,18.70
2019-05-21T15:49:50.663Z,18.70
2019-05-21T15:52:17.031Z,18.80
2019-05-21T15:54:43.269Z,18.80
2019-05-21T15:57:10.808Z,18.70
2019-05-21T15:59:37.483Z,18.70
2019-05-21T16:02:04.001Z,18.90
2019-05-21T16:04:30.354Z,18.90
2019-05-21T16:06:56.597Z,18.70
2019-05-21T16:09:22.976Z,18.60
2019-05-21T16:11:49.212Z,18.60
2019-05-21T16:14:15.513Z,18.50
2019-05-21T16:16:41.857Z,18.60
2019-05-21T16:19:08.112Z,18.60
2019-05-21T16:21:34.380Z,18.60
2019-05-21T16:24:00.640Z,18.30
2019-05-21T16:26:26.902Z,18.30
2019-05-21T16:28:53.249Z,18.20
2019-05-21T16:31:19.701Z,18.40
2019-05-21T16:33:46.008Z,18.40
2019-05-21T16:36:12.584Z,18.50
2019-05-21T16:38:39.192Z,18.50
2019-05-21T16:41:05.433Z,18.30
2019-05-21T16:43:32.072Z,18.30
2019-05-21T16:45:58.451Z,18.30
2019-05-21T16:48:25.059Z,18.20
2019-05-21T16:50:51.349Z,18.10
2019-05-21T16:53:18.036Z,18.00
2019-05-21T16:55:44.417Z,18.00
2019-05-21T16:58:11.089Z,17.80
2019-05-21T17:00:37.813Z,17.80
2019-05-21T17:03:04.305Z,17.70
2019-05-21T17:05:30.672Z,17.70
2019-05-21T17:07:57.261Z,17.60
2019-05-21T17:10:24.249Z,17.60
2019-05-21T17:12:51.003Z,17.50
2019-05-21T17:15:17.495Z,17.70
2019-05-21T17:17:43.774Z,17.80
2019-05-21T17:20:11.415Z,17.90
2019-05-21T17:22:38.811Z,17.80
2019-05-21T17:25:07.164Z,17.70
2019-05-21T17:27:33.531Z,17.70
2019-05-21T17:29:59.871Z,17.80
2019-05-21T17:32:26.414Z,17.80
2019-05-21T17:34:52.732Z,17.80
2019-05-21T17:37:19.088Z,17.70
2019-05-21T17:39:45.603Z,17.60
2019-05-21T17:42:15.527Z,17.50
2019-05-21T17:44:40.095Z,17.40
2019-05-21T17:47:06.708Z,17.30
2019-05-21T17:49:33.349Z,17.30
2019-05-21T17:52:00.011Z,17.20
2019-05-21T17:54:26.821Z,17.10
2019-05-21T17:56:53.199Z,17.10
2019-05-21T17:59:20.526Z,17.00
2019-05-21T18:01:46.936Z,17.00
2019-05-21T18:04:14.538Z,16.90
2019-05-21T18:06:41.557Z,16.80
2019-05-21T18:09:11.220Z,16.80
2019-05-21T18:11:38.064Z,16.80
2019-05-21T18:14:05.608Z,16.90
2019-05-21T18:16:32.326Z,17.00
2019-05-21T18:18:59.342Z,16.90
2019-05-21T18:21:26.015Z,16.90
2019-05-21T18:23:52.444Z,16.90
2019-05-21T18:26:19.085Z,16.70
2019-05-21T18:28:45.798Z,16.60
2019-05-21T18:31:12.572Z,16.60
2019-05-21T18:33:39.081Z,16.60
2019-05-21T18:36:05.426Z,16.60
2019-05-21T18:38:32.002Z,16.60
2019-05-21T18:40:58.712Z,16.50
2019-05-21T18:43:25.144Z,16.50
2019-05-21T18:45:51.404Z,16.40
2019-05-21T18:48:17.800Z,16.30
2019-05-21T18:50:44.335Z,16.30
2019-05-21T18:53:10.705Z,16.20
2019-05-21T18:55:37.115Z,16.20
2019-05-21T18:58:03.983Z,16.20
2019-05-21T19:00:30.285Z,16.30
2019-05-21T19:02:56.571Z,16.20
2019-05-21T19:05:22.801Z,16.20
2019-05-21T19:07:49.480Z,16.00
2019-05-21T19:10:16.002Z,15.90
2019-05-21T19:12:42.410Z,15.80
2019-05-21T19:15:10.908Z,15.80
2019-05-21T19:17:37.327Z,15.70
2019-05-21T19:20:06.711Z,15.70
2019-05-21T19:22:34.021Z,15.60
2019-05-21T19:25:00.465Z,15.60
2019-05-21T19:27:27.072Z,15.60
2019-05-21T19:29:53.498Z,15.50
2019-05-21T19:32:20.168Z,15.50
2019-05-21T19:34:46.580Z,15.50
2019-05-21T19:37:13.372Z,15.40
2019-05-21T19:39:40.373Z,15.40
2019-05-21T19:42:06.964Z,15.40
2019-05-21T19:44:33.304Z,15.40
2019-05-21T19:46:59.900Z,15.50
2019-05-21T19:49:26.408Z,15.50
2019-05-21T19:51:53.102Z,15.50
2019-05-21T19:54:19.813Z,15.30
2019-05-21T19:56:46.352Z,15.10
2019-05-21T19:59:12.997Z,15.10
2019-05-21T20:01:41.315Z,15.10
2019-05-21T20:04:09.216Z,15.00
2019-05-21T20:06:35.620Z,14.90
2019-05-21T20:09:03.966Z,14.90
2019-05-21T20:11:30.291Z,14.80
2019-05-21T20:13:56.994Z,14.80
2019-05-21T20:16:24.503Z,14.70
2019-05-21T20:18:50.992Z,14.80
2019-05-21T20:21:19.748Z,14.70
2019-05-21T20:23:46.834Z,14.80
2019-05-21T20:26:15.369Z,14.80
2019-05-21T20:28:42.068Z,14.70
2019-05-21T20:31:09.592Z,14.80
2019-05-21T20:33:37.489Z,14.80
2019-05-21T20:36:05.972Z,14.70
2019-05-21T20:38:32.392Z,14.60
2019-05-21T20:40:59.068Z,14.60
2019-05-21T20:43:26.116Z,14.60
2019-05-21T20:45:54.002Z,14.50
2019-05-21T20:48:23.522Z,14.40
2019-05-21T20:50:50.097Z,14.40
2019-05-21T20:53:17.973Z,14.40
2019-05-21T20:55:45.104Z,14.40
2019-05-21T20:58:13.515Z,14.30
2019-05-21T21:00:42.035Z,14.30
2019-05-21T21:03:09.555Z,14.30
2019-05-21T21:05:36.130Z,14.30
2019-05-21T21:08:02.898Z,14.40
2019-05-21T21:10:29.277Z,14.30
2019-05-21T21:12:55.841Z,14.10
2019-05-21T21:15:23.014Z,14.10
2019-05-21T21:17:50.074Z,14.10
2019-05-21T21:20:17.452Z,14.00
2019-05-21T21:22:44.172Z,13.90
2019-05-21T21:25:11.671Z,13.90
2019-05-21T21:27:38.680Z,13.80
2019-05-21T21:30:07.160Z,13.60
2019-05-21T21:32:35.308Z,13.40
2019-05-21T21:35:04.013Z,13.30
2019-05-21T21:37:30.980Z,13.30
2019-05-21T21:39:58.008Z,13.30
2019-05-21T21:42:25.092Z,13.30
2019-05-21T21:44:52.423Z,13.40
2019-05-21T21:47:19.991Z,13.30
2019-05-21T21:49:48.319Z,13.40
2019-05-21T21:52:15.818Z,13.40
2019-05-21T21:54:43.566Z,13.30
2019-05-21T21:57:10.241Z,13.20
2019-05-21T21:59:36.975Z,13.20
2019-05-21T22:02:28.407Z,13.20
2019-05-21T22:04:58.088Z,13.20
2019-05-21T22:07:25.882Z,13.20
2019-05-21T22:09:52.106Z,12.90
2019-05-21T22:12:19.981Z,12.80
2019-05-21T22:14:52.356Z,12.50
2019-05-21T22:17:19.435Z,12.30
2019-05-21T22:19:45.991Z,12.40
2019-05-21T22:22:13.153Z,12.40
2019-05-21T22:24:39.717Z,12.40
2019-05-21T22:27:06.427Z,12.50
2019-05-21T22:29:36.343Z,12.60
2019-05-21T22:32:02.772Z,12.60
2019-05-21T22:34:29.047Z,12.70
2019-05-21T22:36:55.750Z,12.90
2019-05-21T22:39:27.213Z,12.80
2019-05-21T22:41:53.975Z,12.60
2019-05-21T22:44:20.525Z,12.50
2019-05-21T22:46:47.436Z,12.50
2019-05-21T22:49:14.317Z,12.60
2019-05-21T22:51:40.918Z,12.50
2019-05-21T22:54:07.580Z,12.50
2019-05-21T22:56:34.031Z,12.50
2019-05-21T22:59:01.345Z,12.50
2019-05-21T23:01:29.665Z,12.20
2019-05-21T23:03:56.590Z,12.20
2019-05-21T23:06:23.600Z,11.90
2019-05-21T23:08:50.749Z,11.80
2019-05-21T23:11:17.267Z,11.90
2019-05-21T23:13:43.499Z,12.00
2019-05-21T23:16:10.573Z,12.00
2019-05-21T23:18:38.856Z,12.20
2019-05-21T23:21:07.055Z,12.10
2019-05-21T23:23:35.423Z,12.10
2019-05-21T23:26:02.069Z,12.10
2019-05-21T23:28:29.494Z,12.00
2019-05-21T23:30:56.354Z,11.90
2019-05-21T23:33:23.111Z,12.00
2019-05-21T23:35:50.576Z,12.10
2019-05-21T23:38:18.934Z,12.00
2019-05-21T23:40:48.203Z,12.00
2019-05-21T23:43:15.972Z,12.10
2019-05-21T23:45:42.559Z,12.10
2019-05-21T23:48:11.576Z,11.90
2019-05-21T23:50:38.410Z,11.70
2019-05-21T23:53:06.108Z,11.70
2019-05-21T23:55:32.671Z,11.90
2019-05-21T23:57:59.306Z,11.90
